createdAt,value
2022-12-11T00:00:49.043Z,1.5
2022-12-11T00:01:55.468Z,1.5
2022-12-11T00:03:01.889Z,1.5
2022-12-11T00:04:08.310Z,1.5
2022-12-11T00:05:14.744Z,1.5
2022-12-11T00:06:21.172Z,1.5
2022-12-11T00:07:27.594Z,1.4
2022-12-11T00:08:34.017Z,1.4
2022-12-11T00:10:46.868Z,1.4
2022-12-11T00:11:53.293Z,1.4
2022-12-11T00:12:59.718Z,1.4
2022-12-11T00:14:06.137Z,1.4
2022-12-11T00:15:12.571Z,1.3
2022-12-11T00:16:19.131Z,1.3
2022-12-11T00:17:25.666Z,1.4
2022-12-11T00:18:32.213Z,1.4
2022-12-11T00:19:38.762Z,1.4
2022-12-11T00:20:45.301Z,1.4
2022-12-11T00:21:51.859Z,1.4
2022-12-11T00:22:58.399Z,1.3
2022-12-11T00:24:04.935Z,1.3
2022-12-11T00:25:11.523Z,1.3
2022-12-11T00:26:18.011Z,1.3
2022-12-11T00:27:24.569Z,1.3
2022-12-11T00:28:31.107Z,1.3
2022-12-11T00:29:37.711Z,1.3
2022-12-11T00:31:10.013Z,1.3
2022-12-11T00:32:16.787Z,1.3
2022-12-11T00:33:23.569Z,1.3
2022-12-11T00:34:30.352Z,1.3
2022-12-11T00:35:37.170Z,1.3
2022-12-11T00:36:43.911Z,1.3
2022-12-11T00:37:50.688Z,1.3
2022-12-11T00:38:57.482Z,1.3
2022-12-11T00:40:04.257Z,1.3
2022-12-11T00:41:11.028Z,1.3
2022-12-11T00:42:17.816Z,1.3
2022-12-11T00:43:24.595Z,1.3
2022-12-11T00:44:31.391Z,1.3
2022-12-11T00:47:49.564Z,1.3
2022-12-11T00:49:27.588Z,1.2
2022-12-11T00:50:34.136Z,1.2
2022-12-11T00:51:40.677Z,1.2
2022-12-11T00:52:47.219Z,1.2
2022-12-11T00:53:53.759Z,1.2
2022-12-11T00:55:00.316Z,1.2
2022-12-11T00:56:06.854Z,1.2
2022-12-11T00:57:13.384Z,1.1
2022-12-11T00:59:26.475Z,1.2
2022-12-11T01:00:33.017Z,1.2
2022-12-11T01:01:39.561Z,1.2
2022-12-11T01:02:46.104Z,1.2
2022-12-11T01:03:52.664Z,1.2
2022-12-11T01:04:59.190Z,1.2
2022-12-11T01:06:05.736Z,1.2
2022-12-11T01:07:12.277Z,1.2
2022-12-11T01:08:18.812Z,1.2
2022-12-11T01:09:25.382Z,1.2
2022-12-11T01:10:32.013Z,1.2
2022-12-11T01:11:38.451Z,1.1
2022-12-11T01:12:44.999Z,1.1
2022-12-11T01:13:51.549Z,1.1
2022-12-11T01:14:58.097Z,1.1
2022-12-11T01:16:04.621Z,1.1
2022-12-11T01:17:11.402Z,1.1
2022-12-11T01:18:18.184Z,1.1
2022-12-11T01:19:24.973Z,1.1
2022-12-11T01:20:31.738Z,1
2022-12-11T01:21:38.516Z,1.1
2022-12-11T01:22:45.294Z,1.1
2022-12-11T01:23:52.072Z,1.1
2022-12-11T01:24:58.879Z,1.1
2022-12-11T01:26:05.618Z,1.1
2022-12-11T01:27:12.405Z,1.1
2022-12-11T01:28:19.178Z,1
2022-12-11T01:29:26.067Z,1.1
2022-12-11T01:30:32.728Z,1
2022-12-11T01:33:50.920Z,1.1
2022-12-11T01:35:28.938Z,1.1
2022-12-11T01:36:35.497Z,1.1
2022-12-11T01:37:42.027Z,1
2022-12-11T01:38:48.571Z,1
2022-12-11T01:39:55.101Z,1.1
2022-12-11T01:41:01.637Z,1
2022-12-11T01:42:08.200Z,1
2022-12-11T01:43:14.725Z,1
2022-12-11T01:44:21.263Z,1
2022-12-11T01:45:27.805Z,1
2022-12-11T01:46:34.334Z,1
2022-12-11T01:47:40.871Z,1
2022-12-11T01:48:47.406Z,1
2022-12-11T01:49:53.937Z,1
2022-12-11T01:51:00.483Z,1
2022-12-11T01:52:07.022Z,1
2022-12-11T01:53:13.569Z,1
2022-12-11T01:54:20.083Z,1
2022-12-11T01:55:26.684Z,1
2022-12-11T01:56:33.164Z,0.9
2022-12-11T01:57:39.702Z,0.9
2022-12-11T01:58:46.226Z,0.9
2022-12-11T01:59:52.772Z,0.9
2022-12-11T02:00:59.307Z,0.9
2022-12-11T02:02:05.830Z,0.9
2022-12-11T02:03:12.616Z,0.9
2022-12-11T02:04:19.377Z,0.9
2022-12-11T02:05:26.157Z,0.8
2022-12-11T02:06:32.923Z,0.8
2022-12-11T02:07:39.702Z,0.8
2022-12-11T02:08:46.473Z,0.9
2022-12-11T02:09:53.302Z,0.9
2022-12-11T02:11:00.022Z,0.8
2022-12-11T02:12:06.787Z,0.9
2022-12-11T02:13:13.561Z,0.8
2022-12-11T02:14:20.334Z,0.8
2022-12-11T02:15:27.103Z,0.7
2022-12-11T02:16:33.881Z,0.7
2022-12-11T02:19:52.066Z,0.7
2022-12-11T02:21:30.082Z,0.7
2022-12-11T02:22:36.610Z,0.7
2022-12-11T02:23:43.146Z,0.7
2022-12-11T02:24:49.675Z,0.8
2022-12-11T02:25:56.210Z,0.8
2022-12-11T02:27:02.749Z,0.8
2022-12-11T02:28:09.280Z,0.8
2022-12-11T02:29:15.814Z,0.8
2022-12-11T02:30:22.360Z,0.8
2022-12-11T02:31:28.886Z,0.8
2022-12-11T02:32:35.419Z,0.8
2022-12-11T02:33:41.960Z,0.7
2022-12-11T02:34:48.513Z,0.8
2022-12-11T02:35:55.028Z,0.8
2022-12-11T02:37:01.567Z,0.8
2022-12-11T02:38:08.092Z,0.7
2022-12-11T02:39:14.628Z,0.7
2022-12-11T02:40:21.160Z,0.7
2022-12-11T02:41:27.709Z,0.7
2022-12-11T02:42:34.247Z,0.8
2022-12-11T02:43:40.782Z,0.7
2022-12-11T02:44:47.316Z,0.7
2022-12-11T02:45:53.850Z,0.6
2022-12-11T02:47:00.394Z,0.6
2022-12-11T02:48:06.937Z,0.7
2022-12-11T02:49:13.704Z,0.7
2022-12-11T02:50:20.482Z,0.6
2022-12-11T02:51:27.257Z,0.7
2022-12-11T02:52:34.023Z,0.6
2022-12-11T02:53:40.797Z,0.7
2022-12-11T02:54:47.579Z,0.6
2022-12-11T02:55:54.348Z,0.6
2022-12-11T02:57:01.118Z,0.7
2022-12-11T02:58:07.933Z,0.7
2022-12-11T02:59:14.673Z,0.7
2022-12-11T03:00:21.453Z,0.7
2022-12-11T03:01:28.211Z,0.7
2022-12-11T03:02:34.986Z,0.7
2022-12-11T03:05:53.177Z,0.7
2022-12-11T03:07:31.188Z,0.7
2022-12-11T03:08:37.783Z,0.7
2022-12-11T03:09:44.264Z,0.7
2022-12-11T03:10:50.792Z,0.7
2022-12-11T03:11:57.466Z,0.7
2022-12-11T03:13:03.865Z,0.7
2022-12-11T03:14:10.491Z,0.6
2022-12-11T03:15:16.961Z,0.7
2022-12-11T03:16:23.473Z,0.7
2022-12-11T03:17:30.016Z,0.7
2022-12-11T03:18:36.565Z,0.6
2022-12-11T03:19:43.114Z,0.6
2022-12-11T03:20:49.640Z,0.6
2022-12-11T03:21:56.188Z,0.6
2022-12-11T03:23:02.707Z,0.6
2022-12-11T03:24:09.256Z,0.6
2022-12-11T03:25:15.789Z,0.6
2022-12-11T03:26:22.315Z,0.7
2022-12-11T03:27:28.850Z,0.6
2022-12-11T03:28:35.387Z,0.6
2022-12-11T03:29:41.934Z,0.6
2022-12-11T03:30:48.461Z,0.5
2022-12-11T03:31:54.999Z,0.5
2022-12-11T03:33:01.536Z,0.4
2022-12-11T03:34:08.079Z,0.5
2022-12-11T03:35:14.852Z,0.6
2022-12-11T03:36:21.624Z,0.6
2022-12-11T03:37:28.399Z,0.6
2022-12-11T03:38:35.183Z,0.7
2022-12-11T03:39:41.945Z,0.7
2022-12-11T03:40:48.721Z,0.6
2022-12-11T03:41:55.490Z,0.6
2022-12-11T03:43:02.273Z,0.7
2022-12-11T03:44:09.037Z,0.6
2022-12-11T03:45:15.811Z,0.7
2022-12-11T03:46:22.582Z,0.7
2022-12-11T03:47:29.357Z,0.7
2022-12-11T03:48:36.127Z,0.7
2022-12-11T03:51:54.312Z,0.6
2022-12-11T03:53:32.205Z,0.7
2022-12-11T03:54:38.620Z,0.7
2022-12-11T03:55:45.036Z,0.7
2022-12-11T03:56:51.451Z,0.8
2022-12-11T03:57:57.874Z,0.8
2022-12-11T03:59:04.317Z,0.8
2022-12-11T04:00:10.712Z,0.8
2022-12-11T04:01:17.122Z,0.8
2022-12-11T04:02:23.590Z,0.8
2022-12-11T04:03:29.955Z,0.7
2022-12-11T04:04:36.371Z,0.7
2022-12-11T04:05:42.790Z,0.8
2022-12-11T04:06:49.221Z,0.8
2022-12-11T04:07:55.624Z,0.8
2022-12-11T04:09:02.037Z,0.8
2022-12-11T04:10:08.478Z,0.8
2022-12-11T04:11:14.867Z,0.9
2022-12-11T04:12:21.286Z,0.9
2022-12-11T04:13:27.700Z,0.9
2022-12-11T04:14:34.124Z,0.9
2022-12-11T04:15:40.535Z,0.9
2022-12-11T04:16:46.954Z,1
2022-12-11T04:17:53.374Z,0.9
2022-12-11T04:18:59.842Z,0.9
2022-12-11T04:20:06.200Z,0.9
2022-12-11T04:21:12.762Z,0.9
2022-12-11T04:22:19.291Z,0.9
2022-12-11T04:23:25.829Z,0.9
2022-12-11T04:24:32.364Z,0.9
2022-12-11T04:25:38.894Z,0.9
2022-12-11T04:26:45.434Z,0.9
2022-12-11T04:27:51.966Z,0.9
2022-12-11T04:28:58.507Z,0.8
2022-12-11T04:30:05.047Z,0.8
2022-12-11T04:31:11.571Z,0.9
2022-12-11T04:32:18.112Z,0.9
2022-12-11T04:33:24.648Z,0.9
2022-12-11T04:34:31.178Z,0.9
2022-12-11T04:36:05.127Z,0.9
2022-12-11T04:37:11.896Z,0.9
2022-12-11T04:38:18.672Z,0.9
2022-12-11T04:39:25.434Z,0.9
2022-12-11T04:40:32.212Z,0.9
2022-12-11T04:41:38.981Z,1
2022-12-11T04:42:45.759Z,0.9
2022-12-11T04:43:52.522Z,0.9
2022-12-11T04:44:59.312Z,0.9
2022-12-11T04:46:06.064Z,1
2022-12-11T04:47:12.842Z,1
2022-12-11T04:48:19.624Z,1
2022-12-11T04:49:26.399Z,1
2022-12-11T04:52:44.579Z,1
2022-12-11T04:54:22.597Z,1
2022-12-11T04:55:29.149Z,1
2022-12-11T04:56:35.663Z,1
2022-12-11T04:57:42.218Z,0.9
2022-12-11T04:58:48.742Z,0.9
2022-12-11T04:59:55.271Z,1
2022-12-11T05:01:01.815Z,1
2022-12-11T05:02:08.343Z,1
2022-12-11T05:03:14.965Z,1
2022-12-11T05:04:21.421Z,1
2022-12-11T05:05:27.957Z,1
2022-12-11T05:06:34.503Z,1.1
2022-12-11T05:07:41.031Z,1
2022-12-11T05:08:47.573Z,1
2022-12-11T05:09:54.105Z,1
2022-12-11T05:11:00.719Z,1.1
2022-12-11T05:12:07.185Z,1
2022-12-11T05:13:13.716Z,1
2022-12-11T05:14:20.256Z,1
2022-12-11T05:15:26.797Z,1
2022-12-11T05:16:33.336Z,1
2022-12-11T05:17:39.876Z,1
2022-12-11T05:18:46.412Z,1.1
2022-12-11T05:19:52.958Z,1.1
2022-12-11T05:20:59.499Z,1.1
2022-12-11T05:22:06.279Z,1.1
2022-12-11T05:23:13.057Z,1
2022-12-11T05:24:19.835Z,1
2022-12-11T05:25:26.596Z,1
2022-12-11T05:26:33.417Z,1
2022-12-11T05:27:40.155Z,1
2022-12-11T05:28:46.923Z,1
2022-12-11T05:29:53.699Z,1
2022-12-11T05:31:00.477Z,1
2022-12-11T05:32:07.252Z,1
2022-12-11T05:33:14.020Z,1
2022-12-11T05:34:20.797Z,1.1
2022-12-11T05:35:27.576Z,1.2
2022-12-11T05:38:45.773Z,1.1
2022-12-11T05:40:24.525Z,1.1
2022-12-11T05:42:02.558Z,1.1
2022-12-11T05:43:09.102Z,1
2022-12-11T05:44:15.634Z,1.1
2022-12-11T05:45:22.172Z,1.1
2022-12-11T05:46:28.709Z,1
2022-12-11T05:47:35.249Z,1.1
2022-12-11T05:48:41.796Z,1.1
2022-12-11T05:49:48.341Z,1.1
2022-12-11T05:50:54.876Z,1.1
2022-12-11T05:52:01.431Z,1.1
2022-12-11T05:53:07.962Z,1.1
2022-12-11T05:54:14.510Z,1.1
2022-12-11T05:55:21.055Z,1.1
2022-12-11T05:56:27.590Z,1.1
2022-12-11T05:57:34.176Z,1.1
2022-12-11T05:58:40.686Z,1.1
2022-12-11T05:59:47.259Z,1.1
2022-12-11T06:00:53.773Z,1.1
2022-12-11T06:02:00.318Z,1.1
2022-12-11T06:03:06.860Z,1.1
2022-12-11T06:04:13.402Z,1.2
2022-12-11T06:05:19.945Z,1.2
2022-12-11T06:06:26.483Z,1.2
2022-12-11T06:07:33.025Z,1.2
2022-12-11T06:08:39.575Z,1.2
2022-12-11T06:09:46.350Z,1.2
2022-12-11T06:10:53.190Z,1.2
2022-12-11T06:11:59.909Z,1.2
2022-12-11T06:13:06.691Z,1.2
2022-12-11T06:14:13.469Z,1.2
2022-12-11T06:15:20.268Z,1.2
2022-12-11T06:16:27.021Z,1.2
2022-12-11T06:17:33.801Z,1.3
2022-12-11T06:18:40.577Z,1.2
2022-12-11T06:19:47.361Z,1.2
2022-12-11T06:20:54.131Z,1.2
2022-12-11T06:22:00.918Z,1.2
2022-12-11T06:23:07.722Z,1.2
2022-12-11T06:26:25.879Z,1.2
2022-12-11T06:28:03.781Z,1.2
2022-12-11T06:29:10.217Z,1.3
2022-12-11T06:30:16.623Z,1.3
2022-12-11T06:31:23.052Z,1.3
2022-12-11T06:32:29.461Z,1.3
2022-12-11T06:33:35.883Z,1.2
2022-12-11T06:34:42.302Z,1.2
2022-12-11T06:35:48.780Z,1.2
2022-12-11T06:36:55.211Z,1.2
2022-12-11T06:38:01.581Z,1.2
2022-12-11T06:39:07.999Z,1.2
2022-12-11T06:40:14.455Z,1.2
2022-12-11T06:41:20.849Z,1.2
2022-12-11T06:42:27.263Z,1.2
2022-12-11T06:43:33.688Z,1.2
2022-12-11T06:44:40.108Z,1.2
2022-12-11T06:45:46.530Z,1.2
2022-12-11T06:46:52.955Z,1.2
2022-12-11T06:47:59.399Z,1.2
2022-12-11T06:49:05.796Z,1.2
2022-12-11T06:50:12.226Z,1.2
2022-12-11T06:51:18.649Z,1.2
2022-12-11T06:52:25.075Z,1.2
2022-12-11T06:53:31.491Z,1.2
2022-12-11T06:54:37.921Z,1.2
2022-12-11T06:55:44.467Z,1.2
2022-12-11T06:56:51.059Z,1.2
2022-12-11T06:57:57.572Z,1.2
2022-12-11T06:59:04.102Z,1.2
2022-12-11T07:00:10.825Z,1.2
2022-12-11T07:01:17.221Z,1.2
2022-12-11T07:02:23.791Z,1.2
2022-12-11T07:03:30.264Z,1.2
2022-12-11T07:04:36.996Z,1.2
2022-12-11T07:05:43.351Z,1.2
2022-12-11T07:06:49.878Z,1.1
2022-12-11T07:07:56.416Z,1.2
2022-12-11T07:09:02.967Z,1.2
2022-12-11T07:10:52.328Z,1.2
2022-12-11T07:11:59.156Z,1.1
2022-12-11T07:13:05.884Z,1.2
2022-12-11T07:14:12.634Z,1.2
2022-12-11T07:15:19.521Z,1.2
2022-12-11T07:16:26.191Z,1.2
2022-12-11T07:17:32.965Z,1.2
2022-12-11T07:18:39.746Z,1.2
2022-12-11T07:19:46.545Z,1.2
2022-12-11T07:20:53.318Z,1.2
2022-12-11T07:22:00.084Z,1.2
2022-12-11T07:23:06.868Z,1.2
2022-12-11T07:24:13.645Z,1.2
2022-12-11T07:27:31.816Z,1.2
2022-12-11T07:29:09.722Z,1.3
2022-12-11T07:30:16.155Z,1.3
2022-12-11T07:31:22.549Z,1.3
2022-12-11T07:32:28.944Z,1.3
2022-12-11T07:33:35.314Z,1.3
2022-12-11T07:34:41.700Z,1.2
2022-12-11T07:35:48.096Z,1.2
2022-12-11T07:36:54.474Z,1.2
2022-12-11T07:38:00.864Z,1.3
2022-12-11T07:39:07.294Z,1.3
2022-12-11T07:40:13.664Z,1.3
2022-12-11T07:41:20.104Z,1.3
2022-12-11T07:42:26.432Z,1.2
2022-12-11T07:43:32.838Z,1.3
2022-12-11T07:44:39.239Z,1.3
2022-12-11T07:45:45.647Z,1.2
2022-12-11T07:46:52.055Z,1.2
2022-12-11T07:47:58.456Z,1.2
2022-12-11T07:49:04.860Z,1.2
2022-12-11T07:50:11.280Z,1.2
2022-12-11T07:51:17.680Z,1.2
2022-12-11T07:52:24.079Z,1.2
2022-12-11T07:53:30.478Z,1.2
2022-12-11T07:54:36.892Z,1.2
2022-12-11T07:55:43.299Z,1.2
2022-12-11T07:56:49.842Z,1.3
2022-12-11T07:57:56.362Z,1.3
2022-12-11T07:59:02.883Z,1.3
2022-12-11T08:00:09.430Z,1.3
2022-12-11T08:01:15.936Z,1.3
2022-12-11T08:02:22.462Z,1.3
2022-12-11T08:03:28.979Z,1.3
2022-12-11T08:04:35.546Z,1.3
2022-12-11T08:05:42.029Z,1.3
2022-12-11T08:06:48.623Z,1.4
2022-12-11T08:07:55.092Z,1.4
2022-12-11T08:09:01.617Z,1.4
2022-12-11T08:10:08.167Z,1.4
2022-12-11T08:11:57.465Z,1.4
2022-12-11T08:13:04.218Z,1.3
2022-12-11T08:14:10.976Z,1.3
2022-12-11T08:15:17.778Z,1.3
2022-12-11T08:16:24.507Z,1.3
2022-12-11T08:17:31.324Z,1.3
2022-12-11T08:18:38.057Z,1.4
2022-12-11T08:19:44.866Z,1.3
2022-12-11T08:20:51.677Z,1.4
2022-12-11T08:21:58.433Z,1.4
2022-12-11T08:23:05.197Z,1.4
2022-12-11T08:24:11.949Z,1.4
2022-12-11T08:25:18.708Z,1.4
2022-12-11T08:28:37.026Z,1.4
2022-12-11T08:30:15.626Z,1.4
2022-12-11T08:31:22.896Z,1.4
2022-12-11T08:32:30.059Z,1.3
2022-12-11T08:34:08.772Z,1.4
2022-12-11T08:35:47.501Z,1.3
2022-12-11T08:37:26.214Z,1.3
2022-12-11T08:39:04.926Z,1.3
2022-12-11T08:40:43.649Z,1.4
2022-12-11T08:42:22.370Z,1.4
2022-12-11T08:44:01.086Z,1.4
2022-12-11T08:45:39.813Z,1.4
2022-12-11T08:47:18.538Z,1.4
2022-12-11T08:48:58.273Z,1.4
2022-12-11T08:52:13.884Z,1.5
2022-12-11T08:53:20.274Z,1.5
2022-12-11T08:54:26.753Z,1.5
2022-12-11T08:55:33.084Z,1.5
2022-12-11T08:56:39.478Z,1.5
2022-12-11T08:57:45.900Z,1.6
2022-12-11T08:58:52.296Z,1.5
2022-12-11T08:59:58.751Z,1.5
2022-12-11T09:01:05.204Z,1.5
2022-12-11T09:02:11.660Z,1.5
2022-12-11T09:03:18.057Z,1.5
2022-12-11T09:04:24.461Z,1.5
2022-12-11T09:05:30.875Z,1.5
2022-12-11T09:06:37.280Z,1.5
2022-12-11T09:07:43.687Z,1.5
2022-12-11T09:08:50.094Z,1.5
2022-12-11T09:09:56.543Z,1.5
2022-12-11T09:11:02.901Z,1.5
2022-12-11T09:12:09.308Z,1.5
2022-12-11T09:13:15.768Z,1.5
2022-12-11T09:14:22.111Z,1.4
2022-12-11T09:15:28.670Z,1.4
2022-12-11T09:16:34.920Z,1.5
2022-12-11T09:17:41.318Z,1.5
2022-12-11T09:18:47.756Z,1.5
2022-12-11T09:19:54.259Z,1.5
2022-12-11T09:21:00.786Z,1.5
2022-12-11T09:22:07.328Z,1.5
2022-12-11T09:23:13.874Z,1.5
2022-12-11T09:24:20.357Z,1.5
2022-12-11T09:25:26.887Z,1.5
2022-12-11T09:26:33.437Z,1.5
2022-12-11T09:27:39.909Z,1.5
2022-12-11T09:28:46.488Z,1.5
2022-12-11T09:29:53.010Z,1.5
2022-12-11T09:30:59.575Z,1.5
2022-12-11T09:32:06.141Z,1.6
2022-12-11T09:33:12.539Z,1.6
2022-12-11T09:35:01.878Z,1.6
2022-12-11T09:36:08.586Z,1.6
2022-12-11T09:37:15.303Z,1.7
2022-12-11T09:38:22.023Z,1.7
2022-12-11T09:39:28.778Z,1.7
2022-12-11T09:40:35.528Z,1.6
2022-12-11T09:41:42.295Z,1.5
2022-12-11T09:42:49.081Z,1.5
2022-12-11T09:43:55.832Z,1.5
2022-12-11T09:45:02.575Z,1.5
2022-12-11T09:46:09.339Z,1.6
2022-12-11T09:47:16.111Z,1.6
2022-12-11T09:48:22.867Z,1.5
2022-12-11T09:51:40.997Z,1.5
2022-12-11T09:53:19.714Z,1.6
2022-12-11T09:54:26.944Z,1.6
2022-12-11T09:55:34.179Z,1.7
2022-12-11T09:57:12.905Z,1.7
2022-12-11T09:58:51.604Z,1.7
2022-12-11T10:00:30.323Z,1.7
2022-12-11T10:02:09.021Z,1.7
2022-12-11T10:03:47.737Z,1.7
2022-12-11T10:05:26.435Z,1.7
2022-12-11T10:07:05.177Z,1.7
2022-12-11T10:08:43.899Z,1.7
2022-12-11T10:10:22.619Z,1.8
2022-12-11T10:12:02.377Z,1.8
2022-12-11T10:15:17.932Z,1.8
2022-12-11T10:16:24.331Z,1.8
2022-12-11T10:17:30.743Z,1.7
2022-12-11T10:18:37.153Z,1.7
2022-12-11T10:19:43.561Z,1.8
2022-12-11T10:20:49.967Z,1.8
2022-12-11T10:21:56.367Z,1.8
2022-12-11T10:23:02.769Z,1.8
2022-12-11T10:24:09.193Z,1.8
2022-12-11T10:25:15.577Z,1.8
2022-12-11T10:26:22.024Z,1.8
2022-12-11T10:27:28.479Z,1.8
2022-12-11T10:28:34.881Z,1.8
2022-12-11T10:29:41.287Z,1.8
2022-12-11T10:30:47.699Z,1.8
2022-12-11T10:31:54.145Z,1.8
2022-12-11T10:33:00.574Z,1.8
2022-12-11T10:34:06.936Z,1.8
2022-12-11T10:35:13.292Z,1.8
2022-12-11T10:36:19.649Z,1.8
2022-12-11T10:37:26.007Z,1.8
2022-12-11T10:38:32.447Z,1.8
2022-12-11T10:39:38.785Z,1.8
2022-12-11T10:40:45.214Z,1.8
2022-12-11T10:41:51.657Z,1.9
2022-12-11T10:42:58.181Z,1.8
2022-12-11T10:44:04.713Z,1.8
2022-12-11T10:45:11.233Z,1.9
2022-12-11T10:46:17.759Z,1.9
2022-12-11T10:47:24.343Z,1.9
2022-12-11T10:48:30.806Z,1.9
2022-12-11T10:49:37.341Z,1.9
2022-12-11T10:50:43.860Z,1.9
2022-12-11T10:51:50.375Z,1.9
2022-12-11T10:52:56.933Z,1.9
2022-12-11T10:54:03.388Z,1.9
2022-12-11T10:55:09.862Z,1.9
2022-12-11T10:56:16.339Z,2
2022-12-11T10:58:05.703Z,2
2022-12-11T10:59:12.470Z,2
2022-12-11T11:00:19.272Z,2
2022-12-11T11:01:25.994Z,2
2022-12-11T11:02:32.796Z,2
2022-12-11T11:03:39.596Z,2
2022-12-11T11:04:46.392Z,2
2022-12-11T11:05:53.293Z,2
2022-12-11T11:07:00.001Z,2
2022-12-11T11:08:06.758Z,2
2022-12-11T11:09:13.512Z,2
2022-12-11T11:10:20.325Z,2
2022-12-11T11:11:27.121Z,2
2022-12-11T11:14:45.238Z,2
2022-12-11T11:16:23.960Z,2
2022-12-11T11:17:31.137Z,1.9
2022-12-11T11:18:38.366Z,1.9
2022-12-11T11:20:17.132Z,2
2022-12-11T11:21:55.851Z,2
2022-12-11T11:23:34.653Z,2
2022-12-11T11:25:13.327Z,2
2022-12-11T11:26:52.048Z,2.1
2022-12-11T11:28:30.751Z,2
2022-12-11T11:30:09.470Z,2
2022-12-11T11:31:48.161Z,2
2022-12-11T11:33:26.863Z,2
2022-12-11T11:35:06.586Z,2.1
2022-12-11T11:38:22.161Z,2.1
2022-12-11T11:39:28.522Z,2.1
2022-12-11T11:40:34.878Z,2.1
2022-12-11T11:41:41.354Z,2.1
2022-12-11T11:42:47.605Z,2.1
2022-12-11T11:43:53.964Z,2.1
2022-12-11T11:45:00.380Z,2.1
2022-12-11T11:46:06.868Z,2.1
2022-12-11T11:47:13.135Z,2.1
2022-12-11T11:48:19.510Z,2.1
2022-12-11T11:49:25.857Z,2.1
2022-12-11T11:50:32.278Z,2
2022-12-11T11:51:38.629Z,2
2022-12-11T11:52:45.054Z,2.1
2022-12-11T11:53:51.403Z,2.1
2022-12-11T11:54:57.816Z,2.1
2022-12-11T11:56:04.168Z,2.2
2022-12-11T11:57:10.535Z,2.2
2022-12-11T11:58:16.894Z,2.1
2022-12-11T11:59:23.309Z,2.1
2022-12-11T12:00:29.676Z,2.1
2022-12-11T12:01:36.077Z,2
2022-12-11T12:02:42.516Z,2
2022-12-11T12:03:48.912Z,2
2022-12-11T12:06:01.779Z,2.1
2022-12-11T12:07:08.243Z,2.1
2022-12-11T12:08:14.779Z,2.1
2022-12-11T12:09:21.205Z,2.1
2022-12-11T12:10:27.696Z,2
2022-12-11T12:11:34.277Z,2
2022-12-11T12:12:40.781Z,2
2022-12-11T12:13:47.297Z,2
2022-12-11T12:14:53.817Z,2
2022-12-11T12:16:00.363Z,2
2022-12-11T12:17:06.863Z,2
2022-12-11T12:18:13.399Z,2
2022-12-11T12:19:19.901Z,2
2022-12-11T12:21:09.215Z,2
2022-12-11T12:22:15.990Z,2.1
2022-12-11T12:23:22.700Z,2.1
2022-12-11T12:24:29.462Z,2.1
2022-12-11T12:25:36.238Z,2.1
2022-12-11T12:26:42.980Z,2.1
2022-12-11T12:27:49.732Z,2
2022-12-11T12:28:56.492Z,2
2022-12-11T12:30:03.253Z,2.1
2022-12-11T12:31:09.999Z,2
2022-12-11T12:32:16.759Z,2
2022-12-11T12:33:23.519Z,2
2022-12-11T12:34:30.277Z,2
2022-12-11T12:37:48.454Z,2
2022-12-11T12:39:27.176Z,2.1
2022-12-11T12:40:34.416Z,2.1
2022-12-11T12:41:41.636Z,2
2022-12-11T12:43:20.379Z,2
2022-12-11T12:44:59.075Z,1.9
2022-12-11T12:46:37.809Z,1.9
2022-12-11T12:48:16.506Z,1.9
2022-12-11T12:49:55.193Z,1.9
2022-12-11T12:51:33.915Z,1.9
2022-12-11T12:53:12.611Z,1.9
2022-12-11T12:54:51.345Z,1.9
2022-12-11T12:56:30.094Z,2
2022-12-11T12:58:09.814Z,2
2022-12-11T13:01:25.381Z,2.1
2022-12-11T13:02:31.832Z,2.1
2022-12-11T13:03:38.251Z,2
2022-12-11T13:04:44.700Z,2
2022-12-11T13:05:51.088Z,1.9
2022-12-11T13:06:57.499Z,1.9
2022-12-11T13:08:03.914Z,1.9
2022-12-11T13:09:10.323Z,2
2022-12-11T13:10:16.775Z,1.9
2022-12-11T13:11:23.224Z,2
2022-12-11T13:12:29.500Z,2
2022-12-11T13:13:35.910Z,1.9
2022-12-11T13:14:42.392Z,1.9
2022-12-11T13:15:48.835Z,1.9
2022-12-11T13:16:55.167Z,1.9
2022-12-11T13:18:01.549Z,2
2022-12-11T13:19:07.960Z,2
2022-12-11T13:20:14.413Z,2
2022-12-11T13:21:20.855Z,1.9
2022-12-11T13:22:27.362Z,1.9
2022-12-11T13:23:33.710Z,2
2022-12-11T13:24:40.172Z,2
2022-12-11T13:25:46.520Z,2
2022-12-11T13:26:52.927Z,2
2022-12-11T13:27:59.310Z,2
2022-12-11T13:29:05.846Z,1.9
2022-12-11T13:30:12.386Z,1.9
2022-12-11T13:31:18.894Z,1.9
2022-12-11T13:32:25.410Z,2
2022-12-11T13:33:31.977Z,1.9
2022-12-11T13:34:38.459Z,1.9
2022-12-11T13:35:44.983Z,1.9
2022-12-11T13:36:51.560Z,2
2022-12-11T13:37:58.193Z,2.1
2022-12-11T13:39:04.646Z,2.1
2022-12-11T13:40:11.166Z,2.1
2022-12-11T13:41:17.687Z,2.1
2022-12-11T13:42:24.282Z,2.1
2022-12-11T13:44:13.507Z,2.1
2022-12-11T13:45:20.262Z,2.1
2022-12-11T13:46:27.024Z,2.1
2022-12-11T13:47:33.784Z,2
2022-12-11T13:48:40.535Z,2
2022-12-11T13:49:47.303Z,2
2022-12-11T13:50:54.102Z,2
2022-12-11T13:52:00.911Z,2
2022-12-11T13:53:07.726Z,2
2022-12-11T13:54:14.537Z,2
2022-12-11T13:55:21.350Z,2
2022-12-11T13:56:28.220Z,1.9
2022-12-11T13:57:34.957Z,2
2022-12-11T14:00:53.017Z,1.9
2022-12-11T14:02:31.733Z,1.9
2022-12-11T14:03:38.964Z,2
2022-12-11T14:04:46.216Z,2
2022-12-11T14:06:24.913Z,1.9
2022-12-11T14:08:03.637Z,1.9
2022-12-11T14:09:42.344Z,1.9
2022-12-11T14:11:21.049Z,1.9
2022-12-11T14:12:59.759Z,1.9
2022-12-11T14:14:38.469Z,1.9
2022-12-11T14:16:17.191Z,1.9
2022-12-11T14:17:55.907Z,1.8
2022-12-11T14:19:34.632Z,1.8
2022-12-11T14:21:14.368Z,1.9
2022-12-11T14:24:29.944Z,1.9
2022-12-11T14:25:36.352Z,1.9
2022-12-11T14:26:42.800Z,1.9
2022-12-11T14:27:49.308Z,2
2022-12-11T14:28:55.650Z,1.9
2022-12-11T14:30:02.253Z,1.9
2022-12-11T14:31:08.570Z,1.9
2022-12-11T14:32:14.887Z,1.9
2022-12-11T14:33:21.281Z,1.9
2022-12-11T14:34:27.670Z,1.9
2022-12-11T14:35:34.082Z,1.9
2022-12-11T14:36:40.579Z,1.9
2022-12-11T14:37:46.897Z,1.9
2022-12-11T14:38:53.313Z,1.9
2022-12-11T14:39:59.747Z,1.9
2022-12-11T14:41:06.190Z,1.9
2022-12-11T14:42:12.543Z,1.9
2022-12-11T14:43:18.922Z,1.8
2022-12-11T14:44:25.310Z,1.8
2022-12-11T14:45:31.703Z,1.8
2022-12-11T14:46:38.084Z,1.8
2022-12-11T14:47:44.510Z,1.8
2022-12-11T14:48:50.933Z,1.8
2022-12-11T14:49:57.394Z,1.8
2022-12-11T14:51:03.780Z,1.8
2022-12-11T14:52:10.345Z,1.8
2022-12-11T14:53:16.895Z,1.8
2022-12-11T14:54:23.415Z,1.8
2022-12-11T14:55:29.958Z,1.8
2022-12-11T14:56:36.511Z,1.8
2022-12-11T14:57:43.094Z,1.8
2022-12-11T14:58:49.592Z,1.8
2022-12-11T14:59:56.131Z,1.8
2022-12-11T15:01:02.675Z,1.7
2022-12-11T15:02:09.226Z,1.7
2022-12-11T15:03:15.777Z,1.8
2022-12-11T15:04:22.297Z,1.8
2022-12-11T15:05:28.838Z,1.8
2022-12-11T15:07:18.187Z,1.8
2022-12-11T15:08:24.964Z,1.8
2022-12-11T15:09:31.757Z,1.8
2022-12-11T15:10:38.543Z,1.8
2022-12-11T15:11:45.305Z,1.8
2022-12-11T15:12:52.080Z,1.8
2022-12-11T15:13:58.860Z,1.8
2022-12-11T15:15:05.643Z,1.8
2022-12-11T15:16:12.412Z,1.8
2022-12-11T15:17:19.217Z,1.8
2022-12-11T15:18:25.993Z,1.8
2022-12-11T15:19:32.757Z,1.8
2022-12-11T15:20:39.540Z,1.8
2022-12-11T15:23:57.722Z,1.8
2022-12-11T15:25:35.623Z,1.8
2022-12-11T15:26:42.053Z,1.7
2022-12-11T15:27:48.471Z,1.8
2022-12-11T15:28:54.888Z,1.8
2022-12-11T15:31:07.742Z,1.8
2022-12-11T15:32:14.161Z,1.8
2022-12-11T15:33:20.594Z,1.8
2022-12-11T15:34:27.011Z,1.8
2022-12-11T15:35:33.436Z,1.8
2022-12-11T15:36:39.876Z,1.8
2022-12-11T15:37:46.284Z,1.8
2022-12-11T15:38:52.708Z,1.8
2022-12-11T15:39:59.169Z,1.8
2022-12-11T15:41:05.546Z,1.8
2022-12-11T15:42:11.979Z,1.8
2022-12-11T15:43:18.399Z,1.8
2022-12-11T15:44:24.836Z,1.8
2022-12-11T15:45:31.243Z,1.8
2022-12-11T15:46:37.681Z,1.7
2022-12-11T15:47:44.095Z,1.7
2022-12-11T15:48:50.517Z,1.7
2022-12-11T15:49:57.001Z,1.7
2022-12-11T15:51:03.371Z,1.7
2022-12-11T15:52:09.823Z,1.7
2022-12-11T15:53:16.361Z,1.7
2022-12-11T15:54:22.904Z,1.7
2022-12-11T15:55:29.461Z,1.7
2022-12-11T15:56:35.998Z,1.7
2022-12-11T15:57:42.537Z,1.6
2022-12-11T15:58:49.150Z,1.7
2022-12-11T15:59:55.649Z,1.7
2022-12-11T16:01:02.183Z,1.7
2022-12-11T16:02:08.771Z,1.7
2022-12-11T16:03:15.266Z,1.7
2022-12-11T16:04:21.812Z,1.7
2022-12-11T16:05:28.343Z,1.7
2022-12-11T16:06:34.900Z,1.7
2022-12-11T16:08:24.260Z,1.7
2022-12-11T16:09:31.039Z,1.7
2022-12-11T16:10:37.818Z,1.7
2022-12-11T16:11:44.594Z,1.7
2022-12-11T16:12:51.375Z,1.7
2022-12-11T16:13:58.156Z,1.7
2022-12-11T16:15:04.962Z,1.7
2022-12-11T16:16:11.721Z,1.7
2022-12-11T16:17:18.504Z,1.7
2022-12-11T16:18:25.286Z,1.6
2022-12-11T16:19:32.063Z,1.6
2022-12-11T16:20:38.847Z,1.7
2022-12-11T16:21:45.631Z,1.7
2022-12-11T16:25:03.838Z,1.8
2022-12-11T16:26:41.875Z,1.8
2022-12-11T16:27:48.470Z,1.8
2022-12-11T16:28:54.932Z,1.7
2022-12-11T16:30:01.467Z,1.8
2022-12-11T16:31:08.019Z,1.8
2022-12-11T16:32:14.564Z,1.8
2022-12-11T16:33:21.126Z,1.8
2022-12-11T16:34:27.652Z,1.7
2022-12-11T16:35:34.186Z,1.7
2022-12-11T16:36:40.743Z,1.7
2022-12-11T16:37:47.370Z,1.7
2022-12-11T16:38:53.818Z,1.6
2022-12-11T16:40:00.394Z,1.6
2022-12-11T16:41:06.913Z,1.6
2022-12-11T16:42:13.456Z,1.6
2022-12-11T16:43:20.026Z,1.6
2022-12-11T16:44:26.552Z,1.6
2022-12-11T16:45:33.088Z,1.6
2022-12-11T16:46:39.629Z,1.6
2022-12-11T16:47:46.174Z,1.6
2022-12-11T16:48:52.785Z,1.6
2022-12-11T16:49:59.254Z,1.6
2022-12-11T16:51:05.818Z,1.6
2022-12-11T16:52:12.375Z,1.6
2022-12-11T16:53:18.933Z,1.6
2022-12-11T16:54:25.736Z,1.6
2022-12-11T16:55:32.493Z,1.7
2022-12-11T16:56:39.291Z,1.6
2022-12-11T16:57:46.007Z,1.6
2022-12-11T16:58:52.791Z,1.6
2022-12-11T16:59:59.568Z,1.6